createdAt,value
2022-10-04T00:02:54.666Z,13.66
2022-10-04T00:07:54.089Z,13.73
2022-10-04T00:12:52.115Z,13.72
2022-10-04T00:18:04.747Z,13.31
2022-10-04T00:23:16.051Z,13.33
2022-10-04T00:28:26.825Z,13.43
2022-10-04T00:33:41.656Z,13.60
2022-10-04T00:38:47.644Z,13.71
2022-10-04T00:43:47.078Z,13.84
2022-10-04T00:48:46.482Z,13.75
2022-10-04T00:53:56.655Z,13.80
2022-10-04T00:59:17.410Z,13.77
2022-10-04T01:04:24.059Z,13.64
2022-10-04T01:09:21.512Z,13.60
2022-10-04T01:14:20.284Z,13.57
2022-10-04T01:19:28.465Z,13.30
2022-10-04T01:24:35.122Z,13.56
2022-10-04T01:29:32.077Z,13.38
2022-10-04T01:34:30.009Z,13.25
2022-10-04T01:39:28.275Z,13.26
2022-10-04T01:44:28.347Z,13.14
2022-10-04T01:49:27.433Z,13.03
2022-10-04T01:54:30.805Z,12.87
2022-10-04T01:59:31.701Z,12.91
2022-10-04T02:04:30.538Z,12.99
2022-10-04T02:09:29.362Z,12.90
2022-10-04T02:14:32.511Z,12.92
2022-10-04T02:19:33.051Z,12.77
2022-10-04T02:24:31.941Z,12.70
2022-10-04T02:29:29.470Z,12.38
2022-10-04T02:34:26.098Z,12.64
2022-10-04T02:39:24.736Z,12.62
2022-10-04T02:44:24.033Z,12.66
2022-10-04T02:49:27.248Z,12.72
2022-10-04T02:54:28.782Z,12.72
2022-10-04T02:59:25.432Z,12.71
2022-10-04T03:04:25.182Z,12.82
2022-10-04T03:09:27.412Z,13.01
2022-10-04T03:14:28.585Z,13.06
2022-10-04T03:19:27.725Z,12.92
2022-10-04T03:24:27.888Z,12.56
2022-10-04T03:29:27.180Z,12.74
2022-10-04T03:34:29.399Z,12.74
2022-10-04T03:39:28.565Z,12.86
2022-10-04T03:44:26.364Z,12.90
2022-10-04T03:49:32.578Z,13.06
2022-10-04T03:54:31.018Z,12.99
2022-10-04T03:59:28.077Z,12.89
2022-10-04T04:04:30.514Z,12.99
2022-10-04T04:09:36.031Z,12.79
2022-10-04T04:14:34.430Z,12.79
2022-10-04T04:19:31.227Z,12.84
2022-10-04T04:24:31.489Z,12.83
2022-10-04T04:29:32.069Z,12.88
2022-10-04T04:34:30.592Z,12.79
2022-10-04T04:39:40.419Z,12.67
2022-10-04T04:44:39.160Z,12.78
2022-10-04T04:49:39.311Z,12.78
2022-10-04T04:54:36.073Z,12.78
2022-10-04T05:05:09.857Z,12.67
2022-10-04T05:10:19.480Z,12.42
2022-10-04T05:15:16.253Z,12.17
2022-10-04T05:20:14.662Z,12.34
2022-10-04T05:25:15.261Z,12.30
2022-10-04T05:30:18.238Z,12.50
2022-10-04T05:35:16.705Z,12.56
2022-10-04T05:40:23.550Z,12.62
2022-10-04T05:45:22.679Z,12.78
2022-10-04T05:50:22.585Z,13.02
2022-10-04T05:55:28.561Z,12.80
2022-10-04T06:00:34.525Z,12.93
2022-10-04T06:05:41.372Z,13.02
2022-10-04T06:10:49.547Z,12.95
2022-10-04T06:15:56.436Z,13.02
2022-10-04T06:21:09.384Z,13.18
2022-10-04T06:26:10.345Z,13.16
2022-10-04T06:31:30.861Z,13.06
2022-10-04T06:36:45.127Z,13.15
2022-10-04T06:41:59.602Z,13.34
2022-10-04T06:47:02.815Z,13.42
2022-10-04T06:52:17.581Z,13.60
2022-10-04T06:57:55.093Z,13.62
2022-10-04T07:03:21.183Z,13.74
2022-10-04T07:08:42.207Z,14.00
2022-10-04T07:14:39.252Z,13.98
2022-10-04T07:20:29.496Z,14.17
2022-10-04T07:43:51.343Z,15.31
2022-10-04T08:13:46.893Z,16.11
2022-10-04T08:18:52.618Z,16.30
2022-10-04T08:23:57.490Z,16.39
2022-10-04T08:29:18.327Z,16.54
2022-10-04T08:34:45.749Z,16.48
2022-10-04T08:39:57.855Z,16.47
2022-10-04T08:45:19.608Z,16.61
2022-10-04T08:50:35.246Z,16.97
2022-10-04T08:55:49.631Z,16.92
2022-10-04T09:01:04.312Z,17.19
2022-10-04T09:06:13.386Z,17.04
2022-10-04T09:11:26.745Z,17.41
2022-10-04T09:16:26.930Z,17.62
2022-10-04T09:21:40.442Z,17.51
2022-10-04T09:26:43.285Z,17.77
2022-10-04T09:31:55.018Z,17.79
2022-10-04T09:37:00.777Z,17.82
2022-10-04T09:42:12.275Z,17.92
2022-10-04T09:47:24.102Z,18.18
2022-10-04T09:52:30.242Z,17.87
2022-10-04T09:57:31.460Z,18.01
2022-10-04T10:02:51.171Z,18.21
2022-10-04T10:07:59.522Z,18.34
2022-10-04T10:13:37.307Z,18.63
2022-10-04T10:18:45.728Z,18.67
2022-10-04T10:24:01.991Z,18.44
2022-10-04T10:29:25.448Z,18.32
2022-10-04T10:35:02.534Z,18.41
2022-10-04T10:40:20.968Z,18.91
2022-10-04T10:45:32.470Z,18.62
2022-10-04T10:50:58.159Z,18.88
2022-10-04T10:56:24.721Z,18.71
2022-10-04T11:01:46.429Z,19.08
2022-10-04T11:07:07.253Z,19.20
2022-10-04T11:12:24.410Z,19.18
2022-10-04T11:17:35.504Z,19.31
2022-10-04T11:22:52.243Z,19.19
2022-10-04T11:27:57.406Z,19.41
2022-10-04T11:33:07.312Z,19.39
2022-10-04T11:38:16.764Z,19.54
2022-10-04T11:43:21.581Z,19.31
2022-10-04T11:48:29.643Z,19.64
2022-10-04T11:53:39.201Z,19.64
2022-10-04T11:58:46.067Z,19.62
2022-10-04T12:03:53.652Z,19.48
2022-10-04T12:09:04.227Z,19.31
2022-10-04T12:14:09.978Z,19.17
2022-10-04T12:19:26.916Z,19.16
2022-10-04T12:24:42.773Z,19.33
2022-10-04T12:30:03.196Z,19.20
2022-10-04T12:35:06.663Z,19.11
2022-10-04T12:40:14.945Z,19.10
2022-10-04T12:45:27.096Z,19.41
2022-10-04T12:50:34.773Z,19.46
2022-10-04T12:55:46.682Z,19.51
2022-10-04T13:00:46.048Z,19.52
2022-10-04T13:05:51.304Z,19.72
2022-10-04T13:10:57.471Z,19.78
2022-10-04T13:21:20.068Z,19.77
2022-10-04T13:26:31.176Z,19.60
2022-10-04T13:31:33.997Z,19.52
2022-10-04T13:36:45.245Z,19.56
2022-10-04T13:41:48.499Z,19.54
2022-10-04T13:46:56.846Z,19.43
2022-10-04T13:52:23.405Z,19.35
2022-10-04T13:57:23.550Z,19.36
2022-10-04T14:02:42.628Z,19.43
2022-10-04T14:08:00.216Z,19.31
2022-10-04T14:13:27.415Z,19.43
2022-10-04T14:18:43.261Z,19.62
2022-10-04T14:24:09.734Z,19.57
2022-10-04T14:29:19.724Z,19.35
2022-10-04T14:34:36.558Z,19.44
2022-10-04T14:39:41.364Z,19.41
2022-10-04T14:44:56.451Z,19.35
2022-10-04T14:50:02.454Z,19.40
2022-10-04T14:55:10.147Z,19.35
2022-10-04T15:00:10.892Z,19.27
2022-10-04T15:05:22.416Z,19.15
2022-10-04T15:10:21.993Z,19.04
2022-10-04T15:15:32.974Z,18.75
2022-10-04T15:20:33.536Z,18.84
2022-10-04T15:25:49.761Z,18.68
2022-10-04T15:30:52.808Z,18.40
2022-10-04T15:35:54.999Z,18.43
2022-10-04T15:41:01.813Z,18.44
2022-10-04T15:46:12.154Z,18.42
2022-10-04T15:51:13.786Z,18.52
2022-10-04T15:56:19.446Z,18.39
2022-10-04T16:01:51.496Z,18.39
2022-10-04T16:06:52.523Z,18.32
2022-10-04T16:12:03.927Z,18.41
2022-10-04T16:17:16.928Z,18.38
2022-10-04T16:22:30.119Z,18.35
2022-10-04T16:27:58.166Z,18.62
2022-10-04T16:33:16.023Z,18.38
2022-10-04T16:38:21.669Z,18.21
2022-10-04T16:43:25.889Z,18.30
2022-10-04T16:48:30.065Z,18.29
2022-10-04T16:53:32.833Z,18.35
2022-10-04T16:58:51.888Z,18.13
2022-10-04T17:03:52.942Z,18.09
2022-10-04T17:09:01.394Z,17.87
2022-10-04T17:14:01.332Z,17.88
2022-10-04T17:19:17.695Z,17.70
2022-10-04T17:24:20.959Z,17.87
2022-10-04T17:29:32.308Z,17.84
2022-10-04T17:34:36.075Z,17.67
2022-10-04T17:39:41.156Z,17.77
2022-10-04T17:44:56.757Z,17.68
2022-10-04T17:50:18.238Z,17.70
2022-10-04T17:55:18.247Z,17.42
2022-10-04T18:00:16.937Z,17.42
2022-10-04T18:05:17.249Z,17.77
2022-10-04T18:10:23.753Z,17.98
2022-10-04T18:15:25.385Z,17.89
2022-10-04T18:20:32.029Z,18.00
2022-10-04T18:25:30.126Z,17.97
2022-10-04T18:30:29.641Z,17.85
2022-10-04T18:35:28.097Z,18.00
2022-10-04T18:40:26.117Z,18.13
2022-10-04T18:45:25.039Z,18.08
2022-10-04T18:50:43.105Z,18.22
2022-10-04T18:55:46.371Z,18.53
2022-10-04T19:01:16.779Z,18.38
2022-10-04T19:06:16.278Z,18.29
2022-10-04T19:11:15.952Z,18.16
2022-10-04T19:16:15.516Z,18.06
2022-10-04T19:21:17.684Z,17.95
2022-10-04T19:26:31.707Z,17.76
2022-10-04T19:31:33.284Z,17.56
2022-10-04T19:36:36.099Z,17.25
2022-10-04T19:41:43.018Z,16.93
2022-10-04T19:46:42.269Z,16.83
2022-10-04T19:51:43.697Z,16.52
2022-10-04T19:56:43.818Z,16.62
2022-10-04T20:01:40.787Z,16.52
2022-10-04T20:06:37.805Z,16.19
2022-10-04T20:11:47.873Z,16.08
2022-10-04T20:17:02.776Z,15.78
2022-10-04T20:22:18.048Z,15.99
2022-10-04T20:27:46.664Z,15.88
2022-10-04T20:32:56.722Z,15.70
2022-10-04T20:38:31.242Z,15.65
2022-10-04T20:43:28.227Z,15.72
2022-10-04T20:48:26.395Z,15.81
2022-10-04T20:53:23.927Z,15.78
2022-10-04T20:58:31.555Z,15.92
2022-10-04T21:03:31.966Z,16.37
2022-10-04T21:08:28.905Z,16.42
2022-10-04T21:13:56.405Z,16.38
2022-10-04T21:18:56.538Z,16.39
2022-10-04T21:23:53.207Z,16.46
2022-10-04T21:28:52.474Z,16.04
2022-10-04T21:33:49.029Z,15.91
2022-10-04T21:38:46.295Z,15.79
2022-10-04T21:43:42.930Z,15.93
2022-10-04T21:48:39.401Z,15.90
2022-10-04T21:53:36.216Z,15.86
2022-10-04T21:58:33.408Z,15.57
2022-10-04T22:03:29.964Z,15.64
2022-10-04T22:08:26.476Z,15.60
2022-10-04T22:13:23.302Z,15.69
2022-10-04T22:18:22.639Z,15.43
2022-10-04T22:23:20.119Z,15.18
2022-10-04T22:28:19.179Z,15.16
2022-10-04T22:33:24.351Z,15.11
2022-10-04T22:38:21.058Z,15.02
2022-10-04T22:43:21.710Z,14.90
2022-10-04T22:48:18.247Z,14.84
2022-10-04T22:53:21.627Z,14.78
2022-10-04T22:58:20.329Z,14.78
2022-10-04T23:03:24.685Z,14.55
2022-10-04T23:08:21.982Z,14.67
2022-10-04T23:13:24.794Z,14.58
2022-10-04T23:18:23.925Z,14.54
2022-10-04T23:23:20.929Z,14.45
2022-10-04T23:28:19.222Z,14.35
2022-10-04T23:33:20.129Z,14.27
2022-10-04T23:38:18.476Z,14.20
2022-10-04T23:43:17.859Z,14.13
2022-10-04T23:48:20.461Z,13.91
2022-10-04T23:53:22.948Z,13.94
2022-10-04T23:58:32.762Z,14.05
